createdAt,value
2024-05-09T00:00:38.448Z,8.82
2024-05-09T00:01:36.084Z,8.81
2024-05-09T00:02:36.118Z,8.85
2024-05-09T00:05:36.891Z,8.9
2024-05-09T00:06:36.090Z,8.93
2024-05-09T00:07:36.163Z,8.92
2024-05-09T00:08:36.214Z,8.78
2024-05-09T00:09:36.118Z,8.63
2024-05-09T00:10:37.811Z,8.54
2024-05-09T00:11:36.185Z,8.57
2024-05-09T00:12:36.250Z,8.59
2024-05-09T00:14:36.273Z,8.63
2024-05-09T00:16:36.236Z,8.52
2024-05-09T00:20:37.879Z,8.52
2024-05-09T00:21:36.298Z,8.53
2024-05-09T00:22:36.318Z,8.51
2024-05-09T00:23:36.342Z,8.49
2024-05-09T00:24:36.375Z,8.46
2024-05-09T00:26:36.513Z,8.42
2024-05-09T00:29:36.361Z,8.33
2024-05-09T00:30:37.090Z,8.33
2024-05-09T00:31:36.398Z,8.33
2024-05-09T00:32:36.601Z,8.34
2024-05-09T00:33:36.541Z,8.32
2024-05-09T00:34:36.463Z,8.33
2024-05-09T00:36:36.484Z,8.3
2024-05-09T00:37:36.555Z,8.28
2024-05-09T00:38:36.537Z,8.21
2024-05-09T00:39:36.480Z,8.14
2024-05-09T00:40:38.898Z,8.12
2024-05-09T00:42:36.530Z,8.11
2024-05-09T00:43:36.505Z,8.09
2024-05-09T00:44:36.667Z,8.08
2024-05-09T00:45:36.576Z,8.07
2024-05-09T00:46:36.646Z,8.03
2024-05-09T00:47:36.733Z,8.04
2024-05-09T00:48:36.761Z,8.03
2024-05-09T00:50:37.600Z,8.02
2024-05-09T00:53:36.902Z,7.99
2024-05-09T00:54:36.664Z,8.05
2024-05-09T00:55:36.712Z,8.12
2024-05-09T00:58:36.766Z,8.2
2024-05-09T00:59:36.779Z,8.16
2024-05-09T01:00:38.789Z,8.17
2024-05-09T01:01:36.870Z,8.23
2024-05-09T01:02:36.955Z,8.27
2024-05-09T01:04:37.786Z,8.27
2024-05-09T01:06:36.743Z,8.19
2024-05-09T01:07:36.732Z,8.21
2024-05-09T01:08:36.717Z,8.21
2024-05-09T01:09:36.755Z,8.18
2024-05-09T01:10:36.970Z,8.18
2024-05-09T01:11:36.886Z,8.18
2024-05-09T01:12:36.890Z,8.1
2024-05-09T01:13:36.874Z,8.02
2024-05-09T01:14:36.932Z,8
2024-05-09T01:17:36.918Z,7.9
2024-05-09T01:18:37.114Z,7.88
2024-05-09T01:19:36.939Z,7.86
2024-05-09T01:20:40.189Z,7.81
2024-05-09T01:22:36.911Z,7.72
2024-05-09T01:25:36.973Z,7.56
2024-05-09T01:26:37.005Z,7.58
2024-05-09T01:27:36.899Z,7.58
2024-05-09T01:28:36.947Z,7.55
2024-05-09T01:29:36.968Z,7.56
2024-05-09T01:30:37.648Z,7.58
2024-05-09T01:32:37.024Z,7.57
2024-05-09T01:33:37.206Z,7.55
2024-05-09T01:34:36.958Z,7.58
2024-05-09T01:35:37.134Z,7.6
2024-05-09T01:37:36.955Z,7.64
2024-05-09T01:38:37.109Z,7.68
2024-05-09T01:39:36.913Z,7.72
2024-05-09T01:40:38.946Z,7.74
2024-05-09T01:41:37.057Z,7.69
2024-05-09T01:43:37.050Z,7.56
2024-05-09T01:44:37.123Z,7.51
2024-05-09T01:45:37.079Z,7.51
2024-05-09T01:46:37.046Z,7.53
2024-05-09T01:47:37.184Z,7.58
2024-05-09T01:50:38.934Z,7.53
2024-05-09T01:51:37.138Z,7.49
2024-05-09T01:53:37.239Z,7.34
2024-05-09T01:54:37.246Z,7.37
2024-05-09T01:57:37.225Z,7.46
2024-05-09T01:58:38.201Z,7.49
2024-05-09T02:02:38.471Z,7.53
2024-05-09T02:04:37.417Z,7.57
2024-05-09T02:06:37.270Z,7.47
2024-05-09T02:07:37.293Z,7.4
2024-05-09T02:08:37.370Z,7.35
2024-05-09T02:09:37.373Z,7.33
2024-05-09T02:11:37.412Z,7.32
2024-05-09T02:13:37.360Z,7.33
2024-05-09T02:14:37.501Z,7.34
2024-05-09T02:16:37.346Z,7.37
2024-05-09T02:17:37.550Z,7.33
2024-05-09T02:18:37.495Z,7.26
2024-05-09T02:19:37.421Z,7.21
2024-05-09T02:20:37.451Z,7.19
2024-05-09T02:21:37.466Z,7.19
2024-05-09T02:22:37.478Z,7.22
2024-05-09T02:25:37.560Z,7.19
2024-05-09T02:26:37.517Z,7.17
2024-05-09T02:28:37.501Z,7.09
2024-05-09T02:29:37.544Z,7.06
2024-05-09T02:30:39.200Z,7.05
2024-05-09T02:31:37.488Z,7.04
2024-05-09T02:33:37.753Z,7.02
2024-05-09T02:34:37.554Z,7.07
2024-05-09T02:35:37.608Z,7.08
2024-05-09T02:37:37.450Z,6.99
2024-05-09T02:38:37.637Z,6.93
2024-05-09T02:39:37.479Z,6.87
2024-05-09T02:40:38.692Z,6.86
2024-05-09T02:42:37.516Z,6.89
2024-05-09T02:43:37.569Z,6.88
2024-05-09T02:44:37.561Z,6.86
2024-05-09T02:45:37.519Z,6.87
2024-05-09T02:46:37.534Z,6.83
2024-05-09T02:47:37.682Z,6.78
2024-05-09T02:48:37.705Z,6.76
2024-05-09T02:50:38.964Z,6.8
2024-05-09T02:51:37.589Z,6.78
2024-05-09T02:52:37.686Z,6.76
2024-05-09T02:54:37.664Z,6.85
2024-05-09T02:57:37.667Z,6.97
2024-05-09T02:59:37.717Z,7.04
2024-05-09T03:00:39.606Z,7.08
2024-05-09T03:02:37.779Z,7.08
2024-05-09T03:03:37.931Z,7.08
2024-05-09T03:07:37.792Z,7.03
2024-05-09T03:09:37.813Z,6.93
2024-05-09T03:10:38.747Z,6.9
2024-05-09T03:11:37.966Z,6.95
2024-05-09T03:12:39.311Z,6.96
2024-05-09T03:14:37.916Z,6.87
2024-05-09T03:16:37.845Z,6.83
2024-05-09T03:17:37.946Z,6.78
2024-05-09T03:18:38.156Z,6.76
2024-05-09T03:19:38.165Z,6.73
2024-05-09T03:21:37.914Z,6.73
2024-05-09T03:22:38.012Z,6.78
2024-05-09T03:23:38.972Z,6.77
2024-05-09T03:25:38.111Z,6.78
2024-05-09T03:27:38.003Z,6.77
2024-05-09T03:29:38.005Z,6.8
2024-05-09T03:30:40.296Z,6.78
2024-05-09T03:31:38.104Z,6.76
2024-05-09T03:32:38.139Z,6.73
2024-05-09T03:33:38.175Z,6.72
2024-05-09T03:34:38.089Z,6.78
2024-05-09T03:35:38.134Z,6.79
2024-05-09T03:36:39.128Z,6.82
2024-05-09T03:38:38.355Z,6.79
2024-05-09T03:39:38.122Z,6.79
2024-05-09T03:44:38.144Z,6.67
2024-05-09T03:45:38.148Z,6.68
2024-05-09T03:46:38.117Z,6.75
2024-05-09T03:47:38.251Z,6.8
2024-05-09T03:48:38.229Z,6.85
2024-05-09T03:49:38.217Z,6.85
2024-05-09T03:50:38.441Z,6.82
2024-05-09T03:52:38.208Z,6.82
2024-05-09T03:53:38.315Z,6.83
2024-05-09T03:54:38.248Z,6.84
2024-05-09T03:55:38.238Z,6.86
2024-05-09T03:56:38.288Z,6.84
2024-05-09T03:57:38.277Z,6.83
2024-05-09T03:58:38.258Z,6.82
2024-05-09T03:59:38.297Z,6.79
2024-05-09T04:00:39.106Z,6.76
2024-05-09T04:01:38.354Z,6.74
2024-05-09T04:02:38.400Z,6.72
2024-05-09T04:03:38.472Z,6.7
2024-05-09T04:05:38.450Z,6.67
2024-05-09T04:06:38.423Z,6.67
2024-05-09T04:07:38.433Z,6.68
2024-05-09T04:08:38.522Z,6.67
2024-05-09T04:09:38.416Z,6.67
2024-05-09T04:10:38.441Z,6.7
2024-05-09T04:15:38.437Z,6.78
2024-05-09T04:16:38.558Z,6.86
2024-05-09T04:18:38.551Z,6.89
2024-05-09T04:20:39.780Z,6.83
2024-05-09T04:22:38.603Z,6.83
2024-05-09T04:24:38.498Z,6.88
2024-05-09T04:25:38.597Z,6.89
2024-05-09T04:27:38.633Z,6.91
2024-05-09T04:28:38.605Z,6.93
2024-05-09T04:30:39.986Z,6.99
2024-05-09T04:31:38.665Z,7.05
2024-05-09T04:33:38.698Z,6.97
2024-05-09T04:37:38.544Z,6.81
2024-05-09T04:38:38.688Z,6.78
2024-05-09T04:39:38.577Z,6.76
2024-05-09T04:40:38.739Z,6.75
2024-05-09T04:41:38.674Z,6.74
2024-05-09T04:42:38.597Z,6.73
2024-05-09T04:43:38.642Z,6.73
2024-05-09T04:44:38.598Z,6.72
2024-05-09T04:45:39.706Z,6.71
2024-05-09T04:47:38.881Z,6.73
2024-05-09T04:48:38.707Z,6.79
2024-05-09T04:49:38.715Z,6.86
2024-05-09T04:50:39.343Z,6.9
2024-05-09T04:51:38.712Z,6.92
2024-05-09T04:52:38.717Z,6.97
2024-05-09T04:53:38.763Z,7.03
2024-05-09T04:54:38.787Z,7.09
2024-05-09T04:55:38.786Z,7.12
2024-05-09T04:56:38.753Z,7.16
2024-05-09T04:57:38.760Z,7.19
2024-05-09T04:58:38.771Z,7.21
2024-05-09T04:59:38.883Z,7.24
2024-05-09T05:00:39.606Z,7.27
2024-05-09T05:01:39.800Z,7.32
2024-05-09T05:03:39.131Z,7.46
2024-05-09T05:05:39.900Z,7.6
2024-05-09T05:07:38.901Z,7.73
2024-05-09T05:08:38.954Z,7.75
2024-05-09T05:12:38.974Z,7.8
2024-05-09T05:14:39.022Z,7.81
2024-05-09T05:16:38.986Z,7.84
2024-05-09T05:17:39.236Z,7.85
2024-05-09T05:19:39.131Z,7.95
2024-05-09T05:21:39.038Z,8.14
2024-05-09T05:22:39.053Z,8.24
2024-05-09T05:23:39.119Z,8.32
2024-05-09T05:24:39.054Z,8.38
2024-05-09T05:25:39.176Z,8.4
2024-05-09T05:27:39.132Z,8.44
2024-05-09T05:28:39.195Z,8.43
2024-05-09T05:29:39.212Z,8.45
2024-05-09T05:32:39.199Z,8.53
2024-05-09T05:33:39.273Z,8.55
2024-05-09T05:34:39.144Z,8.59
2024-05-09T05:35:39.231Z,8.64
2024-05-09T05:36:39.158Z,8.65
2024-05-09T05:37:39.166Z,8.68
2024-05-09T05:38:39.255Z,8.72
2024-05-09T05:39:39.170Z,8.77
2024-05-09T05:40:39.846Z,8.84
2024-05-09T05:41:39.251Z,8.94
2024-05-09T05:44:39.328Z,9.15
2024-05-09T05:45:39.524Z,9.18
2024-05-09T05:47:39.400Z,9.23
2024-05-09T05:48:39.339Z,9.27
2024-05-09T05:49:39.293Z,9.32
2024-05-09T05:50:39.312Z,9.36
2024-05-09T05:51:39.310Z,9.41
2024-05-09T05:53:39.350Z,9.48
2024-05-09T05:54:39.328Z,9.54
2024-05-09T05:55:39.533Z,9.61
2024-05-09T05:56:39.371Z,9.64
2024-05-09T05:58:39.514Z,9.64
2024-05-09T06:00:40.936Z,9.72
2024-05-09T06:02:39.585Z,9.79
2024-05-09T06:03:39.592Z,9.83
2024-05-09T06:04:39.422Z,9.87
2024-05-09T06:05:39.751Z,9.89
2024-05-09T06:06:39.405Z,9.93
2024-05-09T06:07:39.442Z,9.95
2024-05-09T06:08:39.527Z,9.98
2024-05-09T06:11:39.595Z,10.07
2024-05-09T06:12:39.567Z,10.1
2024-05-09T06:13:39.514Z,10.15
2024-05-09T06:14:39.563Z,10.22
2024-05-09T06:15:39.532Z,10.29
2024-05-09T06:16:39.539Z,10.37
2024-05-09T06:17:40.632Z,10.4
2024-05-09T06:19:39.750Z,10.49
2024-05-09T06:20:40.025Z,10.54
2024-05-09T06:22:39.689Z,10.67
2024-05-09T06:23:39.831Z,10.74
2024-05-09T06:24:39.754Z,10.8
2024-05-09T06:25:39.780Z,10.84
2024-05-09T06:26:39.853Z,10.88
2024-05-09T06:27:39.795Z,10.93
2024-05-09T06:28:39.838Z,10.97
2024-05-09T06:30:41.204Z,11.01
2024-05-09T06:31:39.815Z,11.05
2024-05-09T06:32:39.921Z,11.07
2024-05-09T06:35:40.155Z,11.08
2024-05-09T06:36:39.827Z,11.07
2024-05-09T06:37:39.837Z,11.12
2024-05-09T06:38:39.957Z,11.14
2024-05-09T06:39:39.870Z,11.2
2024-05-09T06:40:40.794Z,11.24
2024-05-09T06:43:39.947Z,11.36
2024-05-09T06:44:39.978Z,11.43
2024-05-09T06:45:40.237Z,11.48
2024-05-09T06:46:39.988Z,11.53
2024-05-09T06:47:41.226Z,11.53
2024-05-09T06:49:40.051Z,11.5
2024-05-09T06:50:40.428Z,11.54
2024-05-09T06:51:40.012Z,11.6
2024-05-09T06:52:40.022Z,11.65
2024-05-09T06:53:40.130Z,11.65
2024-05-09T06:54:40.085Z,11.65
2024-05-09T06:57:42.991Z,11.79
2024-05-09T06:58:40.072Z,11.84
2024-05-09T07:00:40.966Z,11.99
2024-05-09T07:01:40.158Z,12.04
2024-05-09T07:05:40.268Z,12.15
2024-05-09T07:07:40.173Z,12.2
2024-05-09T07:08:40.254Z,12.25
2024-05-09T07:09:40.188Z,12.3
2024-05-09T07:10:40.192Z,12.36
2024-05-09T07:13:40.166Z,12.52
2024-05-09T07:14:40.250Z,12.53
2024-05-09T07:15:40.202Z,12.55
2024-05-09T07:16:40.202Z,12.63
2024-05-09T07:17:40.391Z,12.69
2024-05-09T07:18:40.537Z,12.77
2024-05-09T07:19:40.337Z,12.8
2024-05-09T07:20:40.411Z,12.87
2024-05-09T07:22:40.338Z,12.96
2024-05-09T07:23:40.691Z,13.01
2024-05-09T07:24:40.340Z,13.06
2024-05-09T07:25:40.371Z,13.08
2024-05-09T07:26:40.327Z,13.06
2024-05-09T07:28:40.267Z,13.19
2024-05-09T07:29:40.383Z,13.22
2024-05-09T07:32:40.437Z,13.35
2024-05-09T07:33:40.476Z,13.4
2024-05-09T07:34:40.460Z,13.42
2024-05-09T07:37:40.402Z,13.49
2024-05-09T07:38:40.462Z,13.54
2024-05-09T07:39:40.406Z,13.6
2024-05-09T07:40:40.436Z,13.69
2024-05-09T07:41:40.526Z,13.74
2024-05-09T07:42:40.437Z,13.83
2024-05-09T07:43:40.451Z,13.92
2024-05-09T07:44:40.463Z,13.97
2024-05-09T07:45:47.185Z,14.01
2024-05-09T07:47:13.831Z,14.06
2024-05-09T07:48:27.473Z,14.1
2024-05-09T07:54:41.605Z,14.39
2024-05-09T07:56:40.707Z,14.42
2024-05-09T07:57:40.658Z,14.47
2024-05-09T08:00:40.600Z,14.67
2024-05-09T08:03:40.763Z,14.86
2024-05-09T08:04:40.713Z,14.93
2024-05-09T08:07:40.608Z,15.14
2024-05-09T08:08:40.572Z,15.18
2024-05-09T08:09:40.673Z,15.16
2024-05-09T08:10:40.703Z,15.22
2024-05-09T08:11:40.643Z,15.27
2024-05-09T08:14:40.674Z,15.37
2024-05-09T08:15:40.675Z,15.42
2024-05-09T08:17:40.777Z,15.51
2024-05-09T08:19:40.919Z,15.58
2024-05-09T08:20:40.748Z,15.64
2024-05-09T08:21:40.770Z,15.68
2024-05-09T08:24:40.730Z,15.76
2024-05-09T08:25:40.723Z,15.84
2024-05-09T08:26:40.703Z,15.9
2024-05-09T08:27:40.807Z,15.94
2024-05-09T08:28:40.714Z,15.94
2024-05-09T08:29:40.778Z,15.97
2024-05-09T08:30:40.967Z,16.01
2024-05-09T08:33:40.836Z,16.1
2024-05-09T08:34:40.787Z,16.17
2024-05-09T08:35:40.823Z,16.209999
2024-05-09T08:37:41.897Z,16.26
2024-05-09T08:39:40.831Z,16.309999
2024-05-09T08:40:40.969Z,16.34
2024-05-09T08:41:40.872Z,16.370001
2024-05-09T08:42:41.032Z,16.450001
2024-05-09T08:44:40.950Z,16.450001
2024-05-09T08:45:41.009Z,16.5
2024-05-09T08:46:40.951Z,16.559999
2024-05-09T08:47:41.121Z,16.620001
2024-05-09T08:49:41.608Z,16.77
2024-05-09T08:50:41.187Z,16.83
2024-05-09T08:51:41.074Z,16.82
2024-05-09T08:52:41.052Z,16.799999
2024-05-09T08:53:41.081Z,16.85
2024-05-09T08:54:41.135Z,16.879999
2024-05-09T08:57:41.059Z,17.07
2024-05-09T08:58:41.061Z,17.030001
2024-05-09T09:00:41.080Z,16.98
2024-05-09T09:01:41.388Z,16.959999
2024-05-09T09:02:41.156Z,17.01
2024-05-09T09:03:41.327Z,17.049999
2024-05-09T09:04:41.276Z,17.01
2024-05-09T09:06:41.124Z,17.120001
2024-05-09T09:07:42.142Z,17.200001
2024-05-09T09:09:41.289Z,17.299999
2024-05-09T09:11:41.132Z,17.34
2024-05-09T09:12:41.246Z,17.23
2024-05-09T09:13:41.214Z,17.25
2024-05-09T09:14:41.200Z,17.280001
2024-05-09T09:15:41.205Z,17.299999
2024-05-09T09:16:41.176Z,17.299999
2024-05-09T09:17:41.270Z,17.35
2024-05-09T09:18:41.382Z,17.379999
2024-05-09T09:21:41.266Z,17.469999
2024-05-09T09:22:41.348Z,17.530001
2024-05-09T09:24:41.276Z,17.59
2024-05-09T09:25:41.275Z,17.66
2024-05-09T09:26:41.297Z,17.719999
2024-05-09T09:28:41.378Z,17.77
2024-05-09T09:30:41.435Z,17.75
2024-05-09T09:31:41.387Z,17.75
2024-05-09T09:32:41.375Z,17.76
2024-05-09T09:33:41.497Z,17.73
2024-05-09T09:34:41.462Z,17.68
2024-05-09T09:36:41.435Z,17.68
2024-05-09T09:37:41.401Z,17.709999
2024-05-09T09:38:41.423Z,17.790001
2024-05-09T09:39:41.547Z,17.82
2024-05-09T09:41:41.469Z,17.860001
2024-05-09T09:44:42.252Z,17.98
2024-05-09T09:45:42.492Z,18.059999
2024-05-09T09:47:41.556Z,18.1
2024-05-09T09:48:41.765Z,18.16
2024-05-09T09:50:41.586Z,18.219999
2024-05-09T09:52:41.567Z,18.4
2024-05-09T09:53:41.605Z,18.42
2024-05-09T09:54:41.656Z,18.33
2024-05-09T09:55:41.677Z,18.27
2024-05-09T09:56:41.599Z,18.32
2024-05-09T09:57:41.766Z,18.35
2024-05-09T09:58:41.711Z,18.4
2024-05-09T10:00:42.000Z,18.49
2024-05-09T10:01:41.919Z,18.52
2024-05-09T10:02:41.780Z,18.559999
2024-05-09T10:03:41.875Z,18.57
2024-05-09T10:05:43.325Z,18.68
2024-05-09T10:06:41.742Z,18.700001
2024-05-09T10:07:41.765Z,18.719999
2024-05-09T10:08:41.756Z,18.67
2024-05-09T10:09:41.842Z,18.639999
2024-05-09T10:12:42.830Z,18.65
2024-05-09T10:14:41.827Z,18.92
2024-05-09T10:15:41.848Z,19.049999
2024-05-09T10:16:41.886Z,19.120001
2024-05-09T10:17:41.954Z,19.01
2024-05-09T10:18:42.241Z,19.08
2024-05-09T10:19:41.984Z,19.120001
2024-05-09T10:20:41.964Z,19.120001
2024-05-09T10:21:41.939Z,19.129999
2024-05-09T10:26:42.063Z,18.92
2024-05-09T10:27:42.121Z,18.809999
2024-05-09T10:28:42.122Z,18.870001
2024-05-09T10:30:43.282Z,18.9
2024-05-09T10:31:42.257Z,18.99
2024-05-09T10:32:42.367Z,19.059999
2024-05-09T10:33:42.360Z,19.139999
2024-05-09T10:34:42.227Z,19.030001
2024-05-09T10:36:42.144Z,19.18
2024-05-09T10:37:42.191Z,19.280001
2024-05-09T10:38:42.202Z,19.299999
2024-05-09T10:39:42.223Z,19.23
2024-05-09T10:42:42.212Z,19.17
2024-05-09T10:43:42.238Z,19.24
2024-05-09T10:46:42.206Z,19.440001
2024-05-09T10:48:42.302Z,19.6
2024-05-09T10:49:42.229Z,19.66
2024-05-09T10:50:42.341Z,19.82
2024-05-09T10:52:42.196Z,19.91
2024-05-09T10:53:42.274Z,19.799999
2024-05-09T10:54:42.314Z,19.879999
2024-05-09T10:57:42.254Z,19.870001
2024-05-09T10:58:42.260Z,19.889999
2024-05-09T10:59:42.349Z,19.98
2024-05-09T11:00:42.479Z,20.02
2024-05-09T11:02:42.558Z,19.889999
2024-05-09T11:03:42.812Z,19.959999
2024-05-09T11:04:42.461Z,20.059999
2024-05-09T11:05:42.636Z,20.129999
2024-05-09T11:06:42.413Z,20.23
2024-05-09T11:08:42.488Z,20.27
2024-05-09T11:10:42.457Z,20.51
2024-05-09T11:11:42.546Z,20.559999
2024-05-09T11:12:42.417Z,20.52
2024-05-09T11:13:42.414Z,20.540001
2024-05-09T11:15:42.532Z,20.1
2024-05-09T11:17:42.457Z,20.32
2024-05-09T11:18:42.567Z,20.309999
2024-05-09T11:20:42.623Z,20.450001
2024-05-09T11:21:42.654Z,20.43
2024-05-09T11:23:42.538Z,20.530001
2024-05-09T11:24:42.508Z,20.559999
2024-05-09T11:25:42.497Z,20.68
2024-05-09T11:26:42.559Z,20.709999
2024-05-09T11:28:42.501Z,20.25
2024-05-09T11:29:42.569Z,19.98
2024-05-09T11:30:42.620Z,20.08
2024-05-09T11:31:42.697Z,20.24
2024-05-09T11:32:42.748Z,20.379999
2024-05-09T11:34:42.670Z,20.65
2024-05-09T11:35:42.681Z,20.73
2024-05-09T11:36:42.772Z,20.790001
2024-05-09T11:39:42.691Z,20.879999
2024-05-09T11:41:42.791Z,20.49
2024-05-09T11:44:42.699Z,20.59
2024-05-09T11:45:42.720Z,20.76
2024-05-09T11:46:42.767Z,20.719999
2024-05-09T11:47:42.928Z,20.639999
2024-05-09T11:48:43.098Z,20.440001
2024-05-09T11:49:42.845Z,20.41
2024-05-09T11:51:42.852Z,20.299999
2024-05-09T11:53:42.913Z,20.23
2024-05-09T11:55:42.776Z,20.57
2024-05-09T11:56:42.788Z,21.200001
2024-05-09T11:57:42.953Z,21.860001
2024-05-09T11:59:42.955Z,22.049999
2024-05-09T12:01:42.908Z,21.93
2024-05-09T12:02:42.883Z,22.02
2024-05-09T12:03:43.136Z,22.280001
2024-05-09T12:04:42.996Z,22.67
2024-05-09T12:05:43.073Z,22.16
2024-05-09T12:06:42.951Z,21.969999
2024-05-09T12:07:42.912Z,21.940001
2024-05-09T12:08:42.929Z,21.59
2024-05-09T12:09:43.063Z,21.43
2024-05-09T12:11:43.982Z,20.74
2024-05-09T12:13:43.051Z,20.48
2024-05-09T12:16:43.107Z,20.559999
2024-05-09T12:17:43.320Z,20.700001
2024-05-09T12:19:43.045Z,20.870001
2024-05-09T12:22:43.028Z,20.66
2024-05-09T12:24:43.085Z,20.42
2024-05-09T12:25:43.102Z,20.190001
2024-05-09T12:26:43.068Z,20.15
2024-05-09T12:27:43.137Z,20.209999
2024-05-09T12:28:43.807Z,20.290001
2024-05-09T12:30:43.190Z,20.440001
2024-05-09T12:31:43.248Z,20.5
2024-05-09T12:32:43.336Z,20.639999
2024-05-09T12:33:43.523Z,20.709999
2024-05-09T12:34:43.188Z,20.75
2024-05-09T12:37:43.178Z,21.26
2024-05-09T12:39:43.218Z,23.09
2024-05-09T12:40:43.528Z,23.65
2024-05-09T12:41:43.214Z,24.639999
2024-05-09T12:42:43.244Z,25.549999
2024-05-09T12:43:43.339Z,25.74
2024-05-09T12:46:43.261Z,27.959999
2024-05-09T12:47:43.457Z,28.6
2024-05-09T12:49:43.446Z,28.610001
2024-05-09T12:51:43.380Z,28.35
2024-05-09T12:53:43.296Z,28.42
2024-05-09T12:54:43.305Z,29
2024-05-09T12:55:47.915Z,29.83
2024-05-09T12:56:44.327Z,30.51
2024-05-09T12:58:43.419Z,30.799999
2024-05-09T12:59:44.467Z,29.809999
2024-05-09T13:02:44.559Z,27.07
2024-05-09T13:04:43.594Z,26.92
2024-05-09T13:05:43.801Z,26.67
2024-05-09T13:06:43.500Z,27.01
2024-05-09T13:07:43.505Z,27.33
2024-05-09T13:08:43.531Z,27.469999
2024-05-09T13:09:43.528Z,27.84
2024-05-09T13:10:43.565Z,28.299999
2024-05-09T13:11:43.526Z,29.120001
2024-05-09T13:12:43.575Z,29.059999
2024-05-09T13:13:43.545Z,29.09
2024-05-09T13:16:43.615Z,27.08
2024-05-09T13:17:43.667Z,27.549999
2024-05-09T13:18:44.729Z,27.469999
2024-05-09T13:20:43.579Z,27.23
2024-05-09T13:21:43.644Z,27.719999
2024-05-09T13:22:43.683Z,27.02
2024-05-09T13:26:43.691Z,26.32
2024-05-09T13:28:43.664Z,25.120001
2024-05-09T13:29:44.436Z,25.34
2024-05-09T13:30:43.840Z,26.23
2024-05-09T13:32:43.932Z,28.01
2024-05-09T13:33:43.851Z,28.459999
2024-05-09T13:34:43.822Z,28.700001
2024-05-09T13:35:45.693Z,28.51
2024-05-09T13:37:43.753Z,29.040001
2024-05-09T13:38:43.828Z,29.57
2024-05-09T13:39:43.854Z,29.469999
2024-05-09T13:40:44.056Z,29.370001
2024-05-09T13:41:43.826Z,29.629999
2024-05-09T13:42:45.136Z,29.690001
2024-05-09T13:43:43.925Z,28.92
2024-05-09T13:46:43.952Z,28.77
2024-05-09T13:47:44.120Z,28.809999
2024-05-09T13:49:43.990Z,29.299999
2024-05-09T13:51:44.050Z,30.41
2024-05-09T13:53:43.954Z,30.68
2024-05-09T13:54:44.100Z,31.33
2024-05-09T13:57:44.056Z,30.969999
2024-05-09T13:59:44.046Z,31.280001
2024-05-09T14:00:46.858Z,30.690001
2024-05-09T14:02:44.052Z,29.860001
2024-05-09T14:03:44.147Z,29.950001
2024-05-09T14:04:44.269Z,28.93
2024-05-09T14:05:44.431Z,29.25
2024-05-09T14:06:44.064Z,29.969999
2024-05-09T14:07:44.035Z,30.719999
2024-05-09T14:08:44.108Z,31.219999
2024-05-09T14:09:44.083Z,31.08
2024-05-09T14:10:44.521Z,29.68
2024-05-09T14:11:44.147Z,29.17
2024-05-09T14:12:44.124Z,29.530001
2024-05-09T14:13:44.137Z,29.299999
2024-05-09T14:14:44.086Z,29.24
2024-05-09T14:15:44.200Z,28.6
2024-05-09T14:16:44.351Z,28.01
2024-05-09T14:17:44.181Z,27.280001
2024-05-09T14:18:44.198Z,26.540001
2024-05-09T14:21:44.165Z,25.030001
2024-05-09T14:23:45.065Z,26.77
2024-05-09T14:25:45.094Z,28.76
2024-05-09T14:26:44.177Z,29.379999
2024-05-09T14:27:44.261Z,29.82
2024-05-09T14:29:44.213Z,29.65
2024-05-09T14:30:44.403Z,30.610001
2024-05-09T14:32:44.376Z,30.73
2024-05-09T14:33:44.384Z,30.629999
2024-05-09T14:34:44.431Z,30.110001
2024-05-09T14:35:44.295Z,29.870001
2024-05-09T14:39:44.255Z,30.08
2024-05-09T14:40:44.444Z,30.950001
2024-05-09T14:41:44.357Z,30.799999
2024-05-09T14:43:45.286Z,29
2024-05-09T14:45:44.475Z,30.889999
2024-05-09T14:46:44.407Z,31.129999
2024-05-09T14:47:44.475Z,30.74
2024-05-09T14:50:44.432Z,28.110001
2024-05-09T14:52:44.424Z,29.43
2024-05-09T14:53:44.433Z,30.01
2024-05-09T14:57:44.483Z,32.720001
2024-05-09T14:58:45.407Z,32.349998
2024-05-09T15:00:46.305Z,33.419998
2024-05-09T15:01:44.538Z,33.57
2024-05-09T15:02:44.772Z,33.900002
2024-05-09T15:03:44.594Z,33.25
2024-05-09T15:04:44.700Z,32.84
2024-05-09T15:05:44.505Z,31.360001
2024-05-09T15:06:44.587Z,32.279999
2024-05-09T15:07:44.487Z,32.110001
2024-05-09T15:08:44.555Z,32.619999
2024-05-09T15:09:44.626Z,32.349998
2024-05-09T15:10:44.712Z,31.82
2024-05-09T15:11:44.612Z,31.1
2024-05-09T15:12:44.623Z,30.68
2024-05-09T15:13:44.614Z,30.91
2024-05-09T15:14:44.593Z,30.280001
2024-05-09T15:15:44.874Z,30.620001
2024-05-09T15:16:44.695Z,29.91
2024-05-09T15:17:45.751Z,29.700001
2024-05-09T15:19:44.808Z,30.9
2024-05-09T15:20:45.758Z,31.1
2024-05-09T15:22:44.724Z,29.98
2024-05-09T15:24:44.665Z,30.23
2024-05-09T15:25:44.730Z,30.309999
2024-05-09T15:26:44.641Z,30.709999
2024-05-09T15:27:44.699Z,30.73
2024-05-09T15:28:44.706Z,29.870001
2024-05-09T15:29:44.760Z,30.32
2024-05-09T15:33:44.855Z,32.889999
2024-05-09T15:34:44.827Z,32.610001
2024-05-09T15:35:44.849Z,33.099998
2024-05-09T15:38:44.779Z,30.790001
2024-05-09T15:39:44.908Z,29.540001
2024-05-09T15:40:44.938Z,27.42
2024-05-09T15:41:44.909Z,26.870001
2024-05-09T15:42:44.974Z,26.83
2024-05-09T15:43:44.960Z,26.16
2024-05-09T15:44:44.970Z,25.73
2024-05-09T15:47:45.050Z,24.559999
2024-05-09T15:48:45.102Z,24.129999
2024-05-09T15:49:45.172Z,23.9
2024-05-09T15:51:45.102Z,23.700001
2024-05-09T15:54:45.120Z,23.27
2024-05-09T15:56:45.155Z,23.26
2024-05-09T15:58:45.144Z,23.57
2024-05-09T16:00:46.264Z,24.030001
2024-05-09T16:02:45.322Z,24.35
2024-05-09T16:03:45.408Z,24.309999
2024-05-09T16:04:45.264Z,24.280001
2024-05-09T16:06:45.211Z,24.299999
2024-05-09T16:07:45.246Z,24.120001
2024-05-09T16:08:45.210Z,23.860001
2024-05-09T16:09:45.268Z,23.790001
2024-05-09T16:10:45.791Z,23.799999
2024-05-09T16:11:45.274Z,23.74
2024-05-09T16:12:45.295Z,23.780001
2024-05-09T16:15:45.410Z,23.639999
2024-05-09T16:16:45.461Z,23.629999
2024-05-09T16:17:45.298Z,23.629999
2024-05-09T16:18:45.390Z,23.280001
2024-05-09T16:19:45.377Z,23.17
2024-05-09T16:21:45.352Z,22.91
2024-05-09T16:22:45.294Z,22.870001
2024-05-09T16:23:45.366Z,22.799999
2024-05-09T16:24:45.424Z,22.32
2024-05-09T16:25:45.412Z,22.25
2024-05-09T16:26:45.403Z,22.280001
2024-05-09T16:27:45.345Z,22.309999
2024-05-09T16:28:45.373Z,22.42
2024-05-09T16:29:45.360Z,22.51
2024-05-09T16:31:45.363Z,22.629999
2024-05-09T16:32:45.509Z,22.51
2024-05-09T16:34:45.443Z,22.360001
2024-05-09T16:35:45.500Z,22.280001
2024-05-09T16:36:45.540Z,22.370001
2024-05-09T16:37:45.475Z,22.43
2024-05-09T16:38:45.486Z,22.42
2024-05-09T16:39:45.575Z,22.35
2024-05-09T16:40:45.644Z,22.27
2024-05-09T16:41:45.470Z,22.23
2024-05-09T16:42:45.563Z,22.23
2024-05-09T16:45:45.618Z,22.07
2024-05-09T16:46:45.604Z,22.1
2024-05-09T16:47:45.664Z,22.139999
2024-05-09T16:48:45.799Z,21.9
2024-05-09T16:49:45.562Z,21.93
2024-05-09T16:52:45.595Z,21.93
2024-05-09T16:54:45.724Z,21.940001
2024-05-09T16:56:45.706Z,21.540001
2024-05-09T16:57:45.694Z,21.559999
2024-05-09T16:58:45.682Z,21.59
2024-05-09T16:59:45.681Z,21.49
2024-05-09T17:00:46.103Z,21.450001
2024-05-09T17:03:45.954Z,21.440001
2024-05-09T17:04:45.905Z,21.450001
2024-05-09T17:05:46.564Z,21.469999
2024-05-09T17:06:45.826Z,21.459999
2024-05-09T17:08:45.792Z,21.5
2024-05-09T17:09:46.882Z,21.549999
2024-05-09T17:11:45.783Z,21.52
2024-05-09T17:12:45.837Z,21.450001
2024-05-09T17:14:45.740Z,21.43
2024-05-09T17:15:45.854Z,21.450001
2024-05-09T17:16:45.811Z,21.379999
2024-05-09T17:17:45.904Z,21.35
2024-05-09T17:18:45.852Z,21.25
2024-05-09T17:20:46.742Z,21.18
2024-05-09T17:22:45.779Z,21.280001
2024-05-09T17:23:45.961Z,21.24
2024-05-09T17:25:45.890Z,21.129999
2024-05-09T17:26:45.874Z,21.030001
2024-05-09T17:27:45.979Z,20.959999
2024-05-09T17:28:45.896Z,20.93
2024-05-09T17:30:45.892Z,20.860001
2024-05-09T17:31:45.917Z,20.85
2024-05-09T17:33:46.008Z,20.959999
2024-05-09T17:34:46.041Z,21.02
2024-05-09T17:36:45.864Z,20.98
2024-05-09T17:37:45.877Z,20.99
2024-05-09T17:38:45.907Z,21.02
2024-05-09T17:39:45.943Z,21.040001
2024-05-09T17:40:45.964Z,21.030001
2024-05-09T17:41:45.935Z,20.940001
2024-05-09T17:42:46.035Z,20.870001
2024-05-09T17:44:45.918Z,20.639999
2024-05-09T17:45:46.014Z,20.559999